createdAt,value
2019-05-05T00:01:11.814Z,96117.59
2019-05-05T00:03:44.974Z,96122.73
2019-05-05T00:06:14.659Z,96135.84
2019-05-05T00:08:45.716Z,96134.89
2019-05-05T00:11:16.540Z,96128.86
2019-05-05T00:13:47.158Z,96120.55
2019-05-05T00:16:20.197Z,96125.09
2019-05-05T00:18:49.316Z,96119.69
2019-05-05T00:21:18.069Z,96125.22
2019-05-05T00:23:52.571Z,96118.59
2019-05-05T00:26:21.216Z,96120.07
2019-05-05T00:28:49.874Z,96110.68
2019-05-05T00:31:18.638Z,96106.89
2019-05-05T00:33:47.364Z,96103.39
2019-05-05T00:36:16.047Z,96107.05
2019-05-05T00:38:44.721Z,96104.30
2019-05-05T00:41:14.868Z,96103.12
2019-05-05T00:43:45.098Z,96099.37
2019-05-05T00:46:21.698Z,96098.81
2019-05-05T00:48:50.429Z,96086.36
2019-05-05T00:51:19.530Z,96079.25
2019-05-05T00:53:48.270Z,96077.41
2019-05-05T00:56:16.938Z,96074.01
2019-05-05T00:58:55.171Z,96066.10
2019-05-05T01:01:41.599Z,96064.22
2019-05-05T01:04:11.884Z,96063.44
2019-05-05T01:06:42.170Z,96065.88
2019-05-05T01:09:14.773Z,96054.00
2019-05-05T01:11:45.516Z,96054.95
2019-05-05T01:14:14.498Z,96055.47
2019-05-05T01:16:45.502Z,96061.94
2019-05-05T01:19:14.984Z,96066.66
2019-05-05T01:21:45.428Z,96066.37
2019-05-05T01:24:14.472Z,96045.31
2019-05-05T01:26:50.894Z,96052.13
2019-05-05T01:29:19.674Z,96051.34
2019-05-05T01:31:48.316Z,96042.83
2019-05-05T01:34:24.686Z,96045.74
2019-05-05T01:36:54.980Z,96047.07
2019-05-05T01:39:25.328Z,96044.01
2019-05-05T01:41:58.362Z,96038.86
2019-05-05T01:44:27.891Z,96032.66
2019-05-05T01:46:56.648Z,96036.67
2019-05-05T01:49:25.597Z,96031.42
2019-05-05T01:51:55.262Z,96020.06
2019-05-05T01:54:25.009Z,96011.56
2019-05-05T01:56:55.435Z,96011.47
2019-05-05T01:59:25.372Z,95992.61
2019-05-05T02:01:55.127Z,95996.09
2019-05-05T02:04:25.487Z,95992.61
2019-05-05T02:06:55.103Z,95984.75
2019-05-05T02:09:24.953Z,95992.80
2019-05-05T02:11:54.863Z,95991.59
2019-05-05T02:14:24.727Z,95988.94
2019-05-05T02:16:54.712Z,95974.58
2019-05-05T02:22:06.625Z,95942.73
2019-05-05T02:24:35.472Z,95944.02
2019-05-05T02:27:05.137Z,95934.30
2019-05-05T02:29:38.558Z,95937.33
2019-05-05T02:32:17.976Z,95930.33
2019-05-05T02:34:56.319Z,95931.22
2019-05-05T02:37:25.607Z,95927.72
2019-05-05T02:39:58.931Z,95924.58
2019-05-05T02:42:27.255Z,95916.20
2019-05-05T02:44:58.812Z,95904.41
2019-05-05T02:47:34.673Z,95901.20
2019-05-05T02:50:07.590Z,95894.14
2019-05-05T02:52:40.566Z,95880.27
2019-05-05T02:55:11.230Z,95875.98
2019-05-05T02:57:45.602Z,95881.91
2019-05-05T03:00:15.975Z,95873.19
2019-05-05T03:02:44.679Z,95873.46
2019-05-05T03:05:14.249Z,95878.71
2019-05-05T03:07:43.828Z,95876.42
2019-05-05T03:10:14.127Z,95881.96
2019-05-05T03:12:44.063Z,95875.20
2019-05-05T03:15:15.690Z,95887.13
2019-05-05T03:17:44.637Z,95896.33
2019-05-05T03:20:14.516Z,95913.05
2019-05-05T03:22:43.590Z,95919.06
2019-05-05T03:25:13.611Z,95922.98
2019-05-05T03:27:44.534Z,95933.89
2019-05-05T03:30:15.393Z,95938.77
2019-05-05T03:32:45.580Z,95960.73
2019-05-05T03:35:14.360Z,95957.69
2019-05-05T03:37:44.596Z,95967.66
2019-05-05T03:40:15.266Z,95967.44
2019-05-05T03:42:45.724Z,95983.99
2019-05-05T03:45:16.370Z,95989.83
2019-05-05T03:47:45.442Z,95984.42
2019-05-05T03:50:14.744Z,95991.22
2019-05-05T03:52:44.931Z,95999.87
2019-05-05T03:55:13.930Z,95985.84
2019-05-05T03:57:44.466Z,95965.55
2019-05-05T04:00:15.488Z,95963.45
2019-05-05T04:02:48.565Z,95975.54
2019-05-05T04:05:30.738Z,95963.02
2019-05-05T04:08:00.607Z,95954.98
2019-05-05T04:10:29.412Z,95955.27
2019-05-05T04:12:58.484Z,95955.09
2019-05-05T04:15:27.744Z,95968.46
2019-05-05T04:17:57.966Z,95997.32
2019-05-05T04:20:27.890Z,96006.68
2019-05-05T04:22:58.145Z,96012.27
2019-05-05T04:25:27.022Z,95999.29
2019-05-05T04:27:55.767Z,95990.11
2019-05-05T04:30:24.481Z,95982.73
2019-05-05T04:32:54.639Z,95988.31
2019-05-05T04:35:24.623Z,95983.29
2019-05-05T04:37:54.213Z,95963.14
2019-05-05T04:40:24.012Z,95950.27
2019-05-05T04:42:54.625Z,95950.18
2019-05-05T04:45:24.256Z,95938.23
2019-05-05T04:47:54.913Z,95942.59
2019-05-05T04:50:31.393Z,95942.64
2019-05-05T04:53:01.691Z,95938.58
2019-05-05T04:55:30.421Z,95933.81
2019-05-05T04:57:59.223Z,95929.91
2019-05-05T05:00:27.903Z,95943.04
2019-05-05T05:02:58.219Z,95947.23
2019-05-05T05:05:44.667Z,95939.14
2019-05-05T05:08:13.982Z,95934.75
2019-05-05T05:10:43.782Z,95937.22
2019-05-05T05:13:13.899Z,95941.89
2019-05-05T05:15:44.652Z,95939.16
2019-05-05T05:18:15.202Z,95954.49
2019-05-05T05:20:44.488Z,95956.70
2019-05-05T05:23:14.269Z,95962.48
2019-05-05T05:25:43.822Z,95958.27
2019-05-05T05:28:14.342Z,95952.42
2019-05-05T05:30:43.995Z,95956.16
2019-05-05T05:33:14.929Z,95948.13
2019-05-05T05:35:44.236Z,95966.98
2019-05-05T05:38:14.027Z,95960.05
2019-05-05T05:40:47.511Z,95961.73
2019-05-05T05:43:33.941Z,95954.28
2019-05-05T05:46:04.493Z,95958.00
2019-05-05T05:48:40.771Z,95959.49
2019-05-05T05:51:11.119Z,95968.69
2019-05-05T05:53:40.320Z,95954.91
2019-05-05T05:56:09.017Z,95955.14
2019-05-05T05:58:37.770Z,95954.66
2019-05-05T06:01:06.489Z,95952.74
2019-05-05T06:03:35.209Z,95958.61
2019-05-05T06:06:06.186Z,95952.38
2019-05-05T06:08:34.909Z,95941.52
2019-05-05T06:11:04.916Z,95936.47
2019-05-05T06:13:33.842Z,95940.98
2019-05-05T06:16:04.250Z,95944.27
2019-05-05T06:18:34.609Z,95955.53
2019-05-05T06:21:04.518Z,95952.24
2019-05-05T06:23:34.437Z,95953.13
2019-05-05T06:26:06.665Z,95956.41
2019-05-05T06:28:34.342Z,95958.58
2019-05-05T06:31:04.847Z,95945.17
2019-05-05T06:33:34.724Z,95956.74
2019-05-05T06:36:15.745Z,95938.44
2019-05-05T06:38:43.557Z,95949.31
2019-05-05T06:41:23.721Z,95936.36
2019-05-05T06:44:00.271Z,95923.18
2019-05-05T06:46:34.312Z,95928.81
2019-05-05T06:49:04.343Z,95933.94
2019-05-05T06:51:33.598Z,95939.29
2019-05-05T06:54:04.493Z,95948.88
2019-05-05T06:56:34.186Z,95947.63
2019-05-05T06:59:04.396Z,95944.06
2019-05-05T07:01:34.920Z,95945.05
2019-05-05T07:04:05.576Z,95941.70
2019-05-05T07:06:35.694Z,95944.67
2019-05-05T07:09:05.636Z,95948.11
2019-05-05T07:11:37.040Z,95941.30
2019-05-05T07:14:05.762Z,95948.80
2019-05-05T07:16:34.706Z,95955.17
2019-05-05T07:19:04.363Z,95941.98
2019-05-05T07:21:34.281Z,95949.91
2019-05-05T07:24:03.947Z,95932.94
2019-05-05T07:26:34.087Z,95923.70
2019-05-05T07:29:04.711Z,95936.00
2019-05-05T07:31:34.292Z,95931.17
2019-05-05T07:34:13.686Z,95935.19
2019-05-05T07:36:47.170Z,95932.19
2019-05-05T07:39:16.014Z,95943.88
2019-05-05T07:41:45.019Z,95943.88
2019-05-05T07:44:25.732Z,95955.48
2019-05-05T07:46:44.291Z,95941.27
2019-05-05T07:49:13.873Z,95945.66
2019-05-05T07:51:44.225Z,95938.42
2019-05-05T07:54:14.564Z,95936.44
2019-05-05T07:56:44.493Z,95935.80
2019-05-05T07:59:14.602Z,95931.06
2019-05-05T08:01:46.548Z,95935.91
2019-05-05T08:04:14.246Z,95940.63
2019-05-05T08:06:44.572Z,95932.00
2019-05-05T08:09:14.577Z,95931.45
2019-05-05T08:11:43.689Z,95940.75
2019-05-05T08:14:14.593Z,95929.55
2019-05-05T08:16:47.653Z,95926.93
2019-05-05T08:19:21.186Z,95923.92
2019-05-05T08:21:49.898Z,95923.92
2019-05-05T08:24:28.966Z,95925.73
2019-05-05T08:26:59.391Z,95946.41
2019-05-05T08:29:34.591Z,95951.23
2019-05-05T08:32:04.930Z,95942.38
2019-05-05T08:34:34.021Z,95938.95
2019-05-05T08:37:04.375Z,95935.88
2019-05-05T08:39:35.464Z,95942.02
2019-05-05T08:42:04.437Z,95943.62
2019-05-05T08:44:34.257Z,95934.52
2019-05-05T08:47:04.464Z,95940.79
2019-05-05T08:49:34.754Z,95942.45
2019-05-05T08:52:04.155Z,95942.45
2019-05-05T08:54:34.411Z,95931.73
2019-05-05T08:57:04.409Z,95924.25
2019-05-05T08:59:36.097Z,95944.25
2019-05-05T09:02:10.777Z,95944.25
2019-05-05T09:04:38.559Z,95949.62
2019-05-05T09:07:07.304Z,95953.89
2019-05-05T09:09:35.982Z,95933.41
2019-05-05T09:12:09.849Z,95930.41
2019-05-05T09:14:39.821Z,95933.58
2019-05-05T09:17:13.694Z,95904.50
2019-05-05T09:19:44.886Z,95909.59
2019-05-05T09:22:14.101Z,95909.59
2019-05-05T09:24:53.750Z,95910.56
2019-05-05T09:27:36.303Z,95905.38
2019-05-05T09:30:08.097Z,95892.90
2019-05-05T09:32:37.625Z,95892.90
2019-05-05T09:35:07.461Z,95907.72
2019-05-05T09:37:37.655Z,95910.81
2019-05-05T09:40:09.745Z,95884.11
2019-05-05T09:42:38.401Z,95884.11
2019-05-05T09:45:10.329Z,95890.92
2019-05-05T09:47:40.290Z,95890.92
2019-05-05T09:50:09.453Z,95906.97
2019-05-05T09:52:38.202Z,95907.44
2019-05-05T09:55:07.754Z,95911.23
2019-05-05T09:57:44.039Z,95912.66
2019-05-05T10:00:17.567Z,95925.78
2019-05-05T10:02:46.374Z,95921.17
2019-05-05T10:05:15.304Z,95924.74
2019-05-05T10:07:44.281Z,95926.72
2019-05-05T10:10:13.853Z,95926.72
2019-05-05T10:12:44.569Z,95924.63
2019-05-05T10:15:14.008Z,95924.48
2019-05-05T10:17:43.533Z,95925.67
2019-05-05T10:20:14.529Z,95929.19
2019-05-05T10:22:43.939Z,95929.19
2019-05-05T10:25:34.329Z,95932.81
2019-05-05T10:28:04.215Z,95923.37
2019-05-05T10:30:33.649Z,95918.88
2019-05-05T10:33:04.070Z,95924.73
2019-05-05T10:35:34.503Z,95929.63
2019-05-05T10:38:03.454Z,95924.57
2019-05-05T10:40:33.967Z,95929.05
2019-05-05T10:43:04.361Z,95923.41
2019-05-05T10:45:33.673Z,95917.00
2019-05-05T10:48:04.042Z,95907.95
2019-05-05T10:50:34.290Z,95907.26
2019-05-05T10:53:04.532Z,95910.03
2019-05-05T10:55:34.610Z,95914.77
2019-05-05T10:58:04.187Z,95923.08
2019-05-05T11:00:41.222Z,95923.08
2019-05-05T11:03:10.005Z,95911.52
2019-05-05T11:05:38.963Z,95904.98
2019-05-05T11:08:07.664Z,95904.98
2019-05-05T11:10:36.416Z,95914.54
2019-05-05T11:13:05.258Z,95910.51
2019-05-05T11:15:33.916Z,95910.51
2019-05-05T11:18:04.086Z,95913.88
2019-05-05T11:20:34.043Z,95910.59
2019-05-05T11:23:04.907Z,95905.61
2019-05-05T11:25:33.838Z,95902.86
2019-05-05T11:28:04.384Z,95891.30
2019-05-05T11:30:36.298Z,95890.86
2019-05-05T11:33:23.808Z,95876.64
2019-05-05T11:35:54.387Z,95859.80
2019-05-05T11:38:24.708Z,95869.16
2019-05-05T11:40:54.723Z,95886.99
2019-05-05T11:43:24.680Z,95894.56
2019-05-05T11:45:54.385Z,95882.43
2019-05-05T11:48:24.126Z,95891.77
2019-05-05T11:50:54.044Z,95893.79
2019-05-05T11:53:25.063Z,95896.38
2019-05-05T11:55:54.893Z,95901.00
2019-05-05T11:58:24.951Z,95910.75
2019-05-05T12:00:54.698Z,95915.72
2019-05-05T12:03:23.904Z,95908.77
2019-05-05T12:05:53.843Z,95911.23
2019-05-05T12:08:23.852Z,95914.21
2019-05-05T12:10:57.803Z,95922.41
2019-05-05T12:13:26.606Z,95922.41
2019-05-05T12:16:04.583Z,95923.75
2019-05-05T12:18:34.265Z,95919.12
2019-05-05T12:21:05.161Z,95928.82
2019-05-05T12:23:34.105Z,95927.78
2019-05-05T12:26:16.871Z,95927.78
2019-05-05T12:28:47.172Z,95941.00
2019-05-05T12:31:26.681Z,95938.33
2019-05-05T12:33:55.329Z,95920.58
2019-05-05T12:36:23.984Z,95920.58
2019-05-05T12:38:54.749Z,95934.78
2019-05-05T12:41:23.987Z,95934.78
2019-05-05T12:43:54.898Z,95936.48
2019-05-05T12:46:36.916Z,95933.57
2019-05-05T12:49:07.223Z,95933.57
2019-05-05T12:51:35.913Z,95938.42
2019-05-05T12:54:05.161Z,95926.90
2019-05-05T12:56:34.198Z,95922.80
2019-05-05T12:59:04.657Z,95923.29
2019-05-05T13:01:37.860Z,95911.47
2019-05-05T13:04:06.511Z,95913.22
2019-05-05T13:06:35.316Z,95892.41
2019-05-05T13:09:05.791Z,95892.41
2019-05-05T13:11:34.518Z,95889.25
2019-05-05T13:14:03.822Z,95914.61
2019-05-05T13:16:32.775Z,95890.14
2019-05-05T13:19:04.421Z,95902.75
2019-05-05T13:21:51.123Z,95905.84
2019-05-05T13:24:24.389Z,95868.91
2019-05-05T13:26:54.825Z,95868.91
2019-05-05T13:29:24.627Z,95898.95
2019-05-05T13:31:54.386Z,95895.66
2019-05-05T13:34:23.550Z,95873.30
2019-05-05T13:36:52.252Z,95891.05
2019-05-05T13:39:21.095Z,95889.84
2019-05-05T13:41:49.766Z,95883.13
2019-05-05T13:44:24.217Z,95883.58
2019-05-05T13:46:53.682Z,95897.95
2019-05-05T13:49:24.170Z,95898.88
2019-05-05T13:51:54.047Z,95898.88
2019-05-05T13:54:24.231Z,95883.25
2019-05-05T13:56:53.226Z,95860.38
2019-05-05T13:59:25.994Z,95881.75
2019-05-05T14:01:54.695Z,95895.09
2019-05-05T14:04:23.360Z,95893.63
2019-05-05T14:06:52.060Z,95898.72
2019-05-05T14:09:20.765Z,95896.09
2019-05-05T14:11:49.422Z,95859.25
2019-05-05T14:14:20.868Z,95859.25
2019-05-05T14:16:49.652Z,95884.30
2019-05-05T14:19:18.337Z,95881.56
2019-05-05T14:21:47.207Z,95879.08
2019-05-05T14:24:17.574Z,95892.84
2019-05-05T14:26:46.652Z,95899.00
2019-05-05T14:29:17.052Z,95897.45
2019-05-05T14:31:45.796Z,95893.78
2019-05-05T14:34:25.438Z,95894.50
2019-05-05T14:37:11.844Z,95889.65
2019-05-05T14:39:40.597Z,95896.45
2019-05-05T14:42:09.325Z,95901.34
2019-05-05T14:44:37.996Z,95909.09
2019-05-05T14:47:06.874Z,95905.09
2019-05-05T14:49:35.540Z,95903.34
2019-05-05T14:52:04.504Z,95910.37
2019-05-05T14:54:34.133Z,95899.47
2019-05-05T14:57:04.549Z,95896.05
2019-05-05T14:59:34.090Z,95904.62
2019-05-05T15:02:04.190Z,95898.30
2019-05-05T15:54:34.007Z,95900.03
2019-05-05T15:57:06.328Z,95905.41
2019-05-05T15:59:34.281Z,95897.94
2019-05-05T16:02:06.944Z,95901.36
2019-05-05T16:04:44.900Z,95890.59
2019-05-05T16:07:13.962Z,95895.30
2019-05-05T16:09:46.818Z,95894.55
2019-05-05T16:12:14.720Z,95894.17
2019-05-05T16:14:46.261Z,95887.86
2019-05-05T16:17:25.516Z,95882.97
2019-05-05T16:19:55.822Z,95882.63
2019-05-05T16:22:35.366Z,95893.49
2019-05-05T16:25:13.812Z,95899.95
2019-05-05T16:27:44.650Z,95906.62
2019-05-05T16:30:15.854Z,95908.16
2019-05-05T16:32:44.538Z,95916.83
2019-05-05T16:35:14.992Z,95912.03
2019-05-05T16:37:43.607Z,95921.48
2019-05-05T16:40:14.478Z,95920.38
2019-05-05T16:42:43.725Z,95933.94
2019-05-05T16:45:16.180Z,95925.33
2019-05-05T16:47:44.455Z,95927.50
2019-05-05T16:50:13.653Z,95926.64
2019-05-05T16:52:46.099Z,95931.31
2019-05-05T16:55:34.510Z,95935.66
2019-05-05T16:58:04.043Z,95937.47
2019-05-05T17:00:34.594Z,95938.64
2019-05-05T17:03:04.213Z,95950.84
2019-05-05T17:05:34.625Z,95951.08
2019-05-05T17:08:04.492Z,95946.19
2019-05-05T17:10:34.216Z,95960.87
2019-05-05T17:13:04.709Z,95960.28
2019-05-05T17:15:37.801Z,95964.46
2019-05-05T17:18:35.222Z,95963.52
2019-05-05T17:20:58.408Z,95972.13
2019-05-05T17:23:27.090Z,95977.63
2019-05-05T17:25:55.849Z,95976.67
2019-05-05T17:28:24.691Z,95972.11
2019-05-05T17:30:54.313Z,95976.55
2019-05-05T17:33:24.129Z,95974.83
2019-05-05T17:35:53.947Z,95980.11
2019-05-05T17:38:24.410Z,95983.35
2019-05-05T17:43:40.257Z,95984.20
2019-05-05T17:46:10.548Z,95993.03
2019-05-05T17:48:49.651Z,95984.66
2019-05-05T17:51:32.159Z,95990.02
2019-05-05T17:54:05.419Z,96001.51
2019-05-05T17:56:34.065Z,96015.37
2019-05-05T17:59:03.453Z,96021.11
2019-05-05T18:01:34.830Z,96024.66
2019-05-05T18:04:05.836Z,96029.61
2019-05-05T18:06:45.363Z,96022.57
2019-05-05T18:09:18.357Z,96021.30
2019-05-05T18:11:57.672Z,96023.59
2019-05-05T18:14:30.885Z,96021.23
2019-05-05T18:16:59.570Z,96033.55
2019-05-05T18:19:29.755Z,96034.27
2019-05-05T18:21:58.405Z,96046.78
2019-05-05T18:24:27.050Z,96049.01
2019-05-05T18:27:04.544Z,96054.39
2019-05-05T18:29:35.141Z,96058.84
2019-05-05T18:32:04.335Z,96059.48
2019-05-05T18:34:33.434Z,96063.67
2019-05-05T18:37:03.756Z,96056.12
2019-05-05T18:39:36.894Z,96062.03
2019-05-05T18:42:07.239Z,96065.64
2019-05-05T18:44:49.802Z,96068.36
2019-05-05T18:47:21.892Z,96067.86
2019-05-05T18:49:53.819Z,96062.84
2019-05-05T18:52:28.656Z,96071.06
2019-05-05T18:54:57.519Z,96071.72
2019-05-05T18:57:27.546Z,96076.41
2019-05-05T18:59:56.132Z,96071.70
2019-05-05T19:02:41.817Z,96075.00
2019-05-05T19:05:24.139Z,96079.97
2019-05-05T19:08:05.651Z,96082.61
2019-05-05T19:10:35.385Z,96079.38
2019-05-05T19:13:04.135Z,96080.05
2019-05-05T19:15:34.426Z,96082.64
2019-05-05T19:18:04.358Z,96084.37
2019-05-05T19:20:38.089Z,96087.70
2019-05-05T19:23:06.671Z,96091.19
2019-05-05T19:25:35.891Z,96090.48
2019-05-05T19:28:06.589Z,96094.00
2019-05-05T19:30:36.124Z,96098.73
2019-05-05T19:33:24.628Z,96090.87
2019-05-05T19:35:56.497Z,96098.58
2019-05-05T19:38:25.160Z,96099.20
2019-05-05T19:40:56.099Z,96095.18
2019-05-05T19:43:26.357Z,96098.13
2019-05-05T19:45:55.290Z,96104.52
2019-05-05T19:48:24.565Z,96107.91
2019-05-05T19:50:55.175Z,96108.77
2019-05-05T19:53:25.458Z,96116.34
2019-05-05T19:55:55.649Z,96111.02
2019-05-05T19:58:24.554Z,96115.50
2019-05-05T20:00:56.507Z,96115.68
2019-05-05T20:03:25.356Z,96116.42
2019-05-05T20:05:57.900Z,96119.91
2019-05-05T20:08:39.925Z,96122.19
2019-05-05T20:10:56.757Z,96117.89
2019-05-05T20:13:25.433Z,96114.77
2019-05-05T20:16:04.924Z,96114.72
2019-05-05T20:18:35.249Z,96118.03
2019-05-05T20:21:07.028Z,96118.25
2019-05-05T20:23:34.592Z,96119.41
2019-05-05T20:26:04.036Z,96115.24
2019-05-05T20:28:34.347Z,96123.81
2019-05-05T20:31:03.583Z,96126.25
2019-05-05T20:33:39.875Z,96130.05
2019-05-05T20:36:17.375Z,96131.53
2019-05-05T20:38:47.702Z,96132.14
2019-05-05T20:41:17.943Z,96120.63
2019-05-05T20:43:46.653Z,96122.25
2019-05-05T20:46:15.397Z,96121.32
2019-05-05T20:48:44.841Z,96121.42
2019-05-05T20:51:14.009Z,96126.60
2019-05-05T20:53:44.773Z,96123.02
2019-05-05T20:56:14.967Z,96121.93
2019-05-05T20:58:44.988Z,96113.35
2019-05-05T21:01:15.075Z,96119.02
2019-05-05T21:03:43.652Z,96113.87
2019-05-05T21:06:13.870Z,96107.85
2019-05-05T21:08:44.300Z,96108.11
2019-05-05T21:11:14.576Z,96108.23
2019-05-05T21:13:45.044Z,96107.08
2019-05-05T21:16:14.229Z,96104.78
2019-05-05T21:18:42.971Z,96110.76
2019-05-05T21:21:13.908Z,96109.99
2019-05-05T21:23:44.500Z,96101.99
2019-05-05T21:26:14.778Z,96103.64
2019-05-05T21:28:44.458Z,96106.91
2019-05-05T21:31:14.473Z,96109.88
2019-05-05T21:33:45.165Z,96109.55
2019-05-05T21:36:16.703Z,96106.34
2019-05-05T21:38:45.401Z,96106.27
2019-05-05T21:41:14.006Z,96105.28
2019-05-05T21:43:44.681Z,96100.13
2019-05-05T21:46:14.749Z,96099.20
2019-05-05T21:48:44.863Z,96088.56
2019-05-05T21:51:28.744Z,96099.82
2019-05-05T21:53:59.018Z,96095.25
2019-05-05T21:56:44.112Z,96097.50
2019-05-05T21:59:14.180Z,96086.91
2019-05-05T22:01:49.403Z,96096.67
2019-05-05T22:04:15.104Z,96093.61
2019-05-05T22:06:44.028Z,96092.13
2019-05-05T22:09:20.036Z,96092.11
2019-05-05T22:11:48.771Z,96090.27
2019-05-05T22:14:21.767Z,96091.72
2019-05-05T22:16:54.348Z,96093.85
2019-05-05T22:19:25.128Z,96090.25
2019-05-05T22:22:01.455Z,96094.89
2019-05-05T22:24:30.293Z,96101.13
2019-05-05T22:26:58.943Z,96102.58
2019-05-05T22:29:29.099Z,96100.58
2019-05-05T22:31:57.769Z,96105.74
2019-05-05T22:34:33.399Z,96108.94
2019-05-05T22:37:05.759Z,96114.37
2019-05-05T22:39:33.839Z,96111.44
2019-05-05T22:42:04.589Z,96108.22
2019-05-05T22:44:33.894Z,96113.69
2019-05-05T22:47:06.599Z,96106.27
2019-05-05T22:49:35.171Z,96108.55
2019-05-05T22:52:05.091Z,96095.17
2019-05-05T22:54:33.815Z,96102.41
2019-05-05T22:57:04.452Z,96097.31
2019-05-05T22:59:32.873Z,96095.66
2019-05-05T23:02:04.043Z,96090.52
2019-05-05T23:04:40.308Z,96085.91
2019-05-05T23:07:10.577Z,96084.54
2019-05-05T23:09:39.209Z,96084.69
2019-05-05T23:12:07.960Z,96083.87
2019-05-05T23:14:36.608Z,96083.87
2019-05-05T23:17:19.065Z,96084.48
2019-05-05T23:20:05.621Z,96088.33
2019-05-05T23:22:44.061Z,96083.78
2019-05-05T23:25:14.541Z,96083.54
2019-05-05T23:27:54.574Z,96085.31
2019-05-05T23:30:25.142Z,96085.39
2019-05-05T23:32:54.880Z,96084.14
2019-05-05T23:35:24.123Z,96081.55
2019-05-05T23:37:55.073Z,96080.80
2019-05-05T23:40:27.525Z,96076.81
2019-05-05T23:42:56.179Z,96072.47
2019-05-05T23:45:25.219Z,96079.66
2019-05-05T23:47:54.677Z,96071.98
2019-05-05T23:50:24.226Z,96068.27
2019-05-05T23:52:54.577Z,96065.12
2019-05-05T23:55:24.089Z,96067.53
2019-05-05T23:57:54.709Z,96072.30
